createdAt,value
2019-06-18T00:00:28.001Z,19.40
2019-06-18T00:01:28.086Z,19.39
2019-06-18T00:02:28.099Z,19.42
2019-06-18T00:03:28.130Z,19.47
2019-06-18T00:04:30.391Z,19.36
2019-06-18T00:05:31.110Z,19.36
2019-06-18T00:06:28.281Z,19.42
2019-06-18T00:07:31.112Z,19.32
2019-06-18T00:08:30.704Z,19.39
2019-06-18T00:09:31.370Z,19.40
2019-06-18T00:10:30.808Z,19.39
2019-06-18T00:11:30.522Z,19.43
2019-06-18T00:12:30.829Z,19.38
2019-06-18T00:13:30.886Z,19.38
2019-06-18T00:14:31.185Z,19.38
2019-06-18T00:15:41.776Z,19.38
2019-06-18T00:16:30.458Z,19.46
2019-06-18T00:17:30.947Z,19.46
2019-06-18T00:18:30.889Z,19.47
2019-06-18T00:19:31.207Z,19.42
2019-06-18T00:20:32.579Z,19.55
2019-06-18T00:21:30.630Z,19.63
2019-06-18T00:22:31.057Z,19.60
2019-06-18T00:23:30.571Z,19.55
2019-06-18T00:24:31.063Z,19.53
2019-06-18T00:25:30.921Z,19.60
2019-06-18T00:26:30.572Z,19.51
2019-06-18T00:27:30.999Z,19.50
2019-06-18T00:28:30.355Z,19.51
2019-06-18T00:29:31.451Z,19.42
2019-06-18T00:30:31.469Z,19.40
2019-06-18T00:31:31.164Z,19.43
2019-06-18T00:32:30.633Z,19.38
2019-06-18T00:33:30.415Z,19.46
2019-06-18T00:34:31.174Z,19.50
2019-06-18T00:35:30.457Z,19.47
2019-06-18T00:36:31.047Z,19.38
2019-06-18T00:37:30.361Z,19.40
2019-06-18T00:38:31.076Z,19.47
2019-06-18T00:39:29.694Z,19.47
2019-06-18T00:40:30.073Z,19.40
2019-06-18T00:41:29.779Z,19.40
2019-06-18T00:42:32.261Z,19.32
2019-06-18T00:43:29.867Z,19.48
2019-06-18T00:44:29.947Z,19.40
2019-06-18T00:45:29.960Z,19.33
2019-06-18T00:46:30.045Z,19.29
2019-06-18T00:47:30.044Z,19.28
2019-06-18T00:48:30.094Z,19.38
2019-06-18T00:49:30.132Z,19.36
2019-06-18T00:50:30.162Z,19.25
2019-06-18T00:51:30.216Z,19.29
2019-06-18T00:52:30.255Z,19.38
2019-06-18T00:53:30.312Z,19.33
2019-06-18T00:54:30.349Z,19.38
2019-06-18T00:55:30.375Z,19.39
2019-06-18T00:56:30.459Z,19.32
2019-06-18T00:57:30.496Z,19.35
2019-06-18T00:58:30.511Z,19.35
2019-06-18T00:59:30.549Z,19.40
2019-06-18T01:00:30.601Z,19.38
2019-06-18T01:01:30.665Z,19.40
2019-06-18T01:02:30.690Z,19.29
2019-06-18T01:03:30.723Z,19.36
2019-06-18T01:04:30.790Z,19.25
2019-06-18T01:05:30.820Z,19.43
2019-06-18T01:06:30.900Z,19.35
2019-06-18T01:07:30.908Z,19.33
2019-06-18T01:08:31.004Z,19.40
2019-06-18T01:09:31.003Z,19.28
2019-06-18T01:10:31.076Z,19.33
2019-06-18T01:11:31.228Z,19.31
2019-06-18T01:12:31.187Z,19.23
2019-06-18T01:13:31.226Z,19.17
2019-06-18T01:14:31.261Z,19.10
2019-06-18T01:15:31.316Z,19.05
2019-06-18T01:16:31.309Z,19.11
2019-06-18T01:17:31.338Z,19.02
2019-06-18T01:18:31.438Z,18.95
2019-06-18T01:19:31.416Z,18.91
2019-06-18T01:20:31.515Z,18.94
2019-06-18T01:21:31.642Z,18.94
2019-06-18T01:22:31.555Z,18.91
2019-06-18T01:23:31.600Z,18.84
2019-06-18T01:24:32.289Z,18.87
2019-06-18T01:25:32.615Z,18.80
2019-06-18T01:26:32.876Z,18.82
2019-06-18T01:27:33.126Z,18.72
2019-06-18T01:28:32.590Z,18.68
2019-06-18T01:29:32.719Z,18.74
2019-06-18T01:30:32.759Z,18.72
2019-06-18T01:31:32.714Z,18.70
2019-06-18T01:32:32.857Z,18.74
2019-06-18T01:33:32.467Z,18.70
2019-06-18T01:34:33.863Z,18.58
2019-06-18T01:35:32.500Z,18.59
2019-06-18T01:36:33.023Z,18.59
2019-06-18T01:37:32.996Z,18.59
2019-06-18T01:38:33.942Z,18.62
2019-06-18T01:39:33.457Z,18.54
2019-06-18T01:40:32.966Z,18.55
2019-06-18T01:41:32.840Z,18.57
2019-06-18T01:42:32.493Z,18.57
2019-06-18T01:43:33.423Z,18.49
2019-06-18T01:44:32.848Z,18.44
2019-06-18T01:45:33.392Z,18.49
2019-06-18T01:46:38.143Z,18.39
2019-06-18T01:47:32.601Z,18.39
2019-06-18T01:48:32.871Z,18.37
2019-06-18T01:49:32.704Z,18.36
2019-06-18T01:50:33.143Z,18.36
2019-06-18T01:51:33.450Z,18.34
2019-06-18T01:52:32.831Z,18.37
2019-06-18T01:53:32.979Z,18.36
2019-06-18T01:54:32.922Z,18.34
2019-06-18T01:55:33.928Z,18.36
2019-06-18T01:56:33.011Z,18.36
2019-06-18T01:57:33.076Z,18.34
2019-06-18T01:58:33.275Z,18.29
2019-06-18T01:59:33.581Z,18.29
2019-06-18T02:00:33.597Z,18.28
2019-06-18T02:01:33.217Z,18.21
2019-06-18T02:02:33.712Z,18.25
2019-06-18T02:03:33.282Z,18.24
2019-06-18T02:04:33.349Z,18.24
2019-06-18T02:05:33.891Z,18.21
2019-06-18T02:06:33.462Z,18.27
2019-06-18T02:07:33.594Z,18.17
2019-06-18T02:08:33.500Z,18.13
2019-06-18T02:09:33.559Z,18.15
2019-06-18T02:10:33.682Z,18.12
2019-06-18T02:11:33.647Z,18.13
2019-06-18T02:12:33.685Z,18.18
2019-06-18T02:13:33.758Z,18.06
2019-06-18T02:14:33.774Z,18.07
2019-06-18T02:15:33.802Z,18.13
2019-06-18T02:16:49.677Z,18.06
2019-06-18T02:17:33.884Z,18.17
2019-06-18T02:18:33.926Z,18.06
2019-06-18T02:19:33.981Z,18.03
2019-06-18T02:20:37.930Z,18.10
2019-06-18T02:21:34.062Z,18.15
2019-06-18T02:22:34.127Z,18.12
2019-06-18T02:23:34.159Z,18.07
2019-06-18T02:24:34.190Z,18.07
2019-06-18T02:25:34.250Z,18.02
2019-06-18T02:26:34.296Z,18.04
2019-06-18T02:27:34.329Z,18.07
2019-06-18T02:28:34.376Z,18.04
2019-06-18T02:29:34.406Z,18.00
2019-06-18T02:30:34.701Z,18.02
2019-06-18T02:31:35.269Z,18.02
2019-06-18T02:32:34.537Z,17.94
2019-06-18T02:33:34.646Z,17.97
2019-06-18T02:34:34.638Z,17.95
2019-06-18T02:35:34.678Z,18.00
2019-06-18T02:36:34.711Z,17.97
2019-06-18T02:37:34.751Z,17.92
2019-06-18T02:38:34.828Z,17.97
2019-06-18T02:39:34.823Z,17.95
2019-06-18T02:40:34.872Z,18.02
2019-06-18T02:41:34.911Z,17.94
2019-06-18T02:42:34.942Z,18.00
2019-06-18T02:43:34.999Z,17.97
2019-06-18T02:44:35.059Z,18.02
2019-06-18T02:45:35.091Z,17.99
2019-06-18T02:46:35.108Z,18.04
2019-06-18T02:47:35.180Z,18.00
2019-06-18T02:48:35.241Z,17.97
2019-06-18T02:49:35.245Z,17.99
2019-06-18T02:50:35.352Z,17.99
2019-06-18T02:51:35.338Z,18.02
2019-06-18T02:52:35.385Z,18.02
2019-06-18T02:53:35.426Z,17.97
2019-06-18T02:54:35.457Z,17.92
2019-06-18T02:55:35.491Z,17.95
2019-06-18T02:56:35.575Z,17.94
2019-06-18T02:57:35.570Z,17.82
2019-06-18T02:58:35.641Z,17.94
2019-06-18T02:59:35.676Z,17.95
2019-06-18T03:00:35.703Z,17.97
2019-06-18T03:01:35.772Z,17.91
2019-06-18T03:02:35.809Z,17.92
2019-06-18T03:03:35.847Z,17.89
2019-06-18T03:04:35.918Z,17.94
2019-06-18T03:05:35.936Z,17.88
2019-06-18T03:06:35.965Z,17.87
2019-06-18T03:07:36.013Z,17.91
2019-06-18T03:08:36.049Z,17.91
2019-06-18T03:09:36.108Z,17.87
2019-06-18T03:10:36.135Z,17.88
2019-06-18T03:11:36.183Z,17.88
2019-06-18T03:12:36.227Z,18.02
2019-06-18T03:13:36.298Z,17.81
2019-06-18T03:14:36.339Z,17.78
2019-06-18T03:15:36.359Z,17.76
2019-06-18T03:16:36.408Z,17.73
2019-06-18T03:17:36.432Z,17.73
2019-06-18T03:18:36.494Z,17.69
2019-06-18T03:19:36.514Z,17.62
2019-06-18T03:20:36.550Z,17.71
2019-06-18T03:21:36.607Z,17.66
2019-06-18T03:22:36.646Z,17.67
2019-06-18T03:23:36.688Z,17.73
2019-06-18T03:24:36.744Z,17.64
2019-06-18T03:25:36.791Z,17.69
2019-06-18T03:26:36.803Z,17.70
2019-06-18T03:27:36.831Z,17.74
2019-06-18T03:28:36.905Z,17.67
2019-06-18T03:29:36.952Z,17.76
2019-06-18T03:30:36.996Z,17.73
2019-06-18T03:31:37.034Z,17.76
2019-06-18T03:32:37.078Z,17.74
2019-06-18T03:33:41.380Z,17.74
2019-06-18T03:34:37.160Z,17.79
2019-06-18T03:35:37.211Z,17.78
2019-06-18T03:36:37.275Z,17.81
2019-06-18T03:37:37.289Z,17.79
2019-06-18T03:38:37.368Z,17.84
2019-06-18T03:39:37.355Z,17.87
2019-06-18T03:40:37.415Z,17.76
2019-06-18T03:41:37.538Z,17.87
2019-06-18T03:42:37.573Z,17.89
2019-06-18T03:43:37.550Z,17.89
2019-06-18T03:44:37.566Z,17.95
2019-06-18T03:45:37.632Z,17.92
2019-06-18T03:46:37.652Z,18.00
2019-06-18T03:47:45.897Z,17.94
2019-06-18T03:48:37.789Z,18.04
2019-06-18T03:49:37.793Z,17.99
2019-06-18T03:50:37.845Z,18.06
2019-06-18T03:51:37.863Z,18.06
2019-06-18T03:52:37.909Z,18.02
2019-06-18T03:53:37.967Z,18.03
2019-06-18T03:54:38.006Z,18.07
2019-06-18T03:55:38.092Z,18.03
2019-06-18T03:56:38.077Z,18.10
2019-06-18T03:57:38.138Z,18.15
2019-06-18T03:58:38.164Z,18.10
2019-06-18T03:59:38.221Z,18.04
2019-06-18T04:00:38.269Z,18.10
2019-06-18T04:01:38.307Z,18.07
2019-06-18T04:02:38.351Z,18.10
2019-06-18T04:03:38.382Z,17.97
2019-06-18T04:04:38.435Z,18.04
2019-06-18T04:05:38.463Z,18.06
2019-06-18T04:06:38.507Z,18.02
2019-06-18T04:07:38.555Z,18.03
2019-06-18T04:08:38.622Z,17.97
2019-06-18T04:09:38.649Z,18.00
2019-06-18T04:10:38.698Z,17.92
2019-06-18T04:11:38.742Z,17.94
2019-06-18T04:12:38.771Z,17.89
2019-06-18T04:13:38.845Z,17.81
2019-06-18T04:14:38.848Z,17.84
2019-06-18T04:15:38.898Z,17.73
2019-06-18T04:16:38.942Z,17.79
2019-06-18T04:17:38.986Z,17.71
2019-06-18T04:18:39.034Z,17.64
2019-06-18T04:19:39.077Z,17.66
2019-06-18T04:20:39.111Z,17.67
2019-06-18T04:21:39.124Z,17.62
2019-06-18T04:22:39.171Z,17.64
2019-06-18T04:23:39.255Z,17.57
2019-06-18T04:24:39.277Z,17.48
2019-06-18T04:25:39.318Z,17.51
2019-06-18T04:26:39.365Z,17.53
2019-06-18T04:27:39.404Z,17.48
2019-06-18T04:28:39.445Z,17.46
2019-06-18T04:29:39.503Z,17.43
2019-06-18T04:30:39.563Z,17.50
2019-06-18T04:31:39.579Z,17.40
2019-06-18T04:32:39.622Z,17.44
2019-06-18T04:33:39.656Z,17.44
2019-06-18T04:34:39.683Z,17.44
2019-06-18T04:35:42.257Z,17.44
2019-06-18T04:36:42.261Z,17.38
2019-06-18T04:37:39.834Z,17.25
2019-06-18T04:38:39.874Z,17.28
2019-06-18T04:39:42.480Z,17.32
2019-06-18T04:40:42.584Z,17.32
2019-06-18T04:41:40.008Z,17.30
2019-06-18T04:42:42.223Z,17.25
2019-06-18T04:43:40.116Z,17.25
2019-06-18T04:44:40.228Z,17.20
2019-06-18T04:45:40.171Z,17.17
2019-06-18T04:46:42.911Z,17.18
2019-06-18T04:47:43.187Z,17.11
2019-06-18T04:48:42.884Z,17.13
2019-06-18T04:49:42.829Z,17.13
2019-06-18T04:50:40.375Z,17.14
2019-06-18T04:51:42.825Z,17.10
2019-06-18T04:52:42.894Z,17.11
2019-06-18T04:53:42.853Z,17.10
2019-06-18T04:54:42.697Z,17.04
2019-06-18T04:55:42.619Z,17.06
2019-06-18T04:56:43.184Z,17.15
2019-06-18T04:57:42.413Z,17.17
2019-06-18T04:58:43.176Z,17.14
2019-06-18T04:59:42.708Z,17.11
2019-06-18T05:00:40.819Z,17.15
2019-06-18T05:01:43.104Z,17.06
2019-06-18T05:02:43.167Z,17.10
2019-06-18T05:03:43.244Z,17.13
2019-06-18T05:04:42.594Z,17.11
2019-06-18T05:05:42.948Z,17.11
2019-06-18T05:06:42.652Z,17.15
2019-06-18T05:07:42.576Z,17.17
2019-06-18T05:08:42.474Z,17.17
2019-06-18T05:09:43.056Z,17.17
2019-06-18T05:10:43.052Z,17.11
2019-06-18T05:11:43.068Z,17.13
2019-06-18T05:12:43.544Z,17.15
2019-06-18T05:13:43.061Z,17.14
2019-06-18T05:14:42.671Z,17.13
2019-06-18T05:15:43.398Z,17.08
2019-06-18T05:16:43.051Z,17.08
2019-06-18T05:17:43.026Z,17.14
2019-06-18T05:18:44.099Z,17.07
2019-06-18T05:19:43.699Z,17.06
2019-06-18T05:20:43.264Z,17.10
2019-06-18T05:21:43.101Z,17.08
2019-06-18T05:22:43.194Z,17.06
2019-06-18T05:23:43.036Z,16.99
2019-06-18T05:24:42.759Z,17.03
2019-06-18T05:25:42.413Z,16.98
2019-06-18T05:26:43.196Z,16.99
2019-06-18T05:27:42.556Z,16.93
2019-06-18T05:28:43.492Z,16.92
2019-06-18T05:29:42.759Z,16.95
2019-06-18T05:30:43.460Z,16.98
2019-06-18T05:31:42.950Z,16.95
2019-06-18T05:32:43.183Z,16.95
2019-06-18T05:33:42.555Z,16.93
2019-06-18T05:34:42.730Z,16.95
2019-06-18T05:35:43.116Z,17.00
2019-06-18T05:36:42.743Z,17.06
2019-06-18T05:37:42.659Z,16.93
2019-06-18T05:38:43.155Z,16.96
2019-06-18T05:39:43.762Z,16.95
2019-06-18T05:40:42.763Z,16.93
2019-06-18T05:41:43.420Z,16.90
2019-06-18T05:42:42.849Z,16.81
2019-06-18T05:43:43.241Z,16.92
2019-06-18T05:44:43.300Z,16.89
2019-06-18T05:45:42.650Z,16.88
2019-06-18T05:46:43.395Z,16.95
2019-06-18T05:47:42.868Z,16.86
2019-06-18T05:48:53.703Z,16.86
2019-06-18T05:49:43.297Z,16.86
2019-06-18T05:50:43.564Z,16.81
2019-06-18T05:51:42.948Z,16.89
2019-06-18T05:52:42.959Z,16.80
2019-06-18T05:53:43.219Z,16.86
2019-06-18T05:54:43.033Z,16.73
2019-06-18T05:55:43.520Z,16.77
2019-06-18T05:56:43.366Z,16.73
2019-06-18T05:57:43.143Z,16.71
2019-06-18T05:58:43.187Z,16.74
2019-06-18T05:59:43.225Z,16.67
2019-06-18T06:00:43.289Z,16.77
2019-06-18T06:01:43.902Z,16.77
2019-06-18T06:02:43.382Z,16.75
2019-06-18T06:03:43.382Z,16.80
2019-06-18T06:04:43.475Z,16.77
2019-06-18T06:05:43.490Z,16.80
2019-06-18T06:06:43.803Z,16.80
2019-06-18T06:07:43.566Z,16.77
2019-06-18T06:08:43.593Z,16.62
2019-06-18T06:09:43.653Z,16.63
2019-06-18T06:10:43.691Z,16.73
2019-06-18T06:11:43.813Z,16.74
2019-06-18T06:12:43.777Z,16.77
2019-06-18T06:13:43.790Z,16.77
2019-06-18T06:14:43.862Z,16.74
2019-06-18T06:15:43.895Z,16.81
2019-06-18T06:16:43.949Z,16.78
2019-06-18T06:17:44.004Z,16.78
2019-06-18T06:18:44.029Z,16.77
2019-06-18T06:19:44.047Z,16.77
2019-06-18T06:20:44.107Z,16.77
2019-06-18T06:21:44.117Z,16.89
2019-06-18T06:22:44.199Z,16.88
2019-06-18T06:23:44.233Z,16.83
2019-06-18T06:24:44.247Z,16.83
2019-06-18T06:25:44.318Z,16.80
2019-06-18T06:26:44.329Z,16.83
2019-06-18T06:27:44.414Z,16.92
2019-06-18T06:28:44.425Z,16.93
2019-06-18T06:29:44.480Z,16.89
2019-06-18T06:30:44.502Z,16.90
2019-06-18T06:31:44.549Z,16.93
2019-06-18T06:32:44.584Z,16.89
2019-06-18T06:33:44.613Z,16.89
2019-06-18T06:34:44.666Z,16.93
2019-06-18T06:35:44.724Z,16.93
2019-06-18T06:36:44.746Z,16.92
2019-06-18T06:37:44.795Z,16.88
2019-06-18T06:38:44.842Z,16.96
2019-06-18T06:39:44.886Z,16.96
2019-06-18T06:40:44.918Z,16.86
2019-06-18T06:41:44.967Z,16.83
2019-06-18T06:42:45.007Z,16.80
2019-06-18T06:43:45.042Z,16.88
2019-06-18T06:44:45.063Z,16.83
2019-06-18T06:45:45.176Z,16.77
2019-06-18T06:46:45.169Z,16.88
2019-06-18T06:47:45.209Z,16.78
2019-06-18T06:48:45.245Z,16.81
2019-06-18T06:49:45.324Z,16.77
2019-06-18T06:50:45.337Z,16.74
2019-06-18T06:51:45.354Z,16.74
2019-06-18T06:52:45.415Z,16.67
2019-06-18T06:53:45.454Z,16.68
2019-06-18T06:54:45.483Z,16.68
2019-06-18T06:55:45.532Z,16.74
2019-06-18T06:56:45.577Z,16.67
2019-06-18T06:57:45.634Z,16.75
2019-06-18T06:58:45.657Z,16.68
2019-06-18T06:59:45.703Z,16.68
2019-06-18T07:00:45.779Z,16.67
2019-06-18T07:01:45.768Z,16.73
2019-06-18T07:02:45.830Z,16.70
2019-06-18T07:03:45.879Z,16.68
2019-06-18T07:04:45.904Z,16.67
2019-06-18T07:05:45.937Z,16.63
2019-06-18T07:06:45.961Z,16.55
2019-06-18T07:07:46.019Z,16.55
2019-06-18T07:08:46.051Z,16.56
2019-06-18T07:09:46.106Z,16.55
2019-06-18T07:10:46.137Z,16.58
2019-06-18T07:11:46.155Z,16.59
2019-06-18T07:12:46.231Z,16.56
2019-06-18T07:13:46.421Z,16.52
2019-06-18T07:14:46.296Z,16.50
2019-06-18T07:15:46.351Z,16.55
2019-06-18T07:16:46.394Z,16.44
2019-06-18T07:17:46.445Z,16.53
2019-06-18T07:18:46.470Z,16.53
2019-06-18T07:19:53.603Z,16.49
2019-06-18T07:20:46.550Z,16.53
2019-06-18T07:21:46.585Z,16.50
2019-06-18T07:22:46.622Z,16.52
2019-06-18T07:23:46.666Z,16.56
2019-06-18T07:24:46.719Z,16.52
2019-06-18T07:25:46.739Z,16.52
2019-06-18T07:26:46.775Z,16.48
2019-06-18T07:27:46.830Z,16.45
2019-06-18T07:28:46.874Z,16.50
2019-06-18T07:29:46.915Z,16.52
2019-06-18T07:30:46.975Z,16.53
2019-06-18T07:31:47.015Z,16.50
2019-06-18T07:32:47.050Z,16.50
2019-06-18T07:33:47.093Z,16.50
2019-06-18T07:34:47.149Z,16.50
2019-06-18T07:35:47.168Z,16.44
2019-06-18T07:36:47.219Z,16.48
2019-06-18T07:37:47.258Z,16.52
2019-06-18T07:38:47.266Z,16.53
2019-06-18T07:39:47.333Z,16.55
2019-06-18T07:40:47.376Z,16.62
2019-06-18T07:41:47.403Z,16.50
2019-06-18T07:42:47.460Z,16.60
2019-06-18T07:43:47.503Z,16.58
2019-06-18T07:44:47.557Z,16.59
2019-06-18T07:45:47.573Z,16.62
2019-06-18T07:46:47.614Z,16.63
2019-06-18T07:47:47.644Z,16.63
2019-06-18T07:48:47.683Z,16.62
2019-06-18T07:49:47.729Z,16.55
2019-06-18T07:50:47.793Z,16.52
2019-06-18T07:51:47.823Z,16.56
2019-06-18T07:52:47.849Z,16.58
2019-06-18T07:53:47.912Z,16.56
2019-06-18T07:54:47.943Z,16.58
2019-06-18T07:55:47.982Z,16.56
2019-06-18T07:56:48.015Z,16.49
2019-06-18T07:57:48.067Z,16.52
2019-06-18T07:58:48.119Z,16.52
2019-06-18T07:59:48.147Z,16.53
2019-06-18T08:00:48.222Z,16.52
2019-06-18T08:01:48.241Z,16.55
2019-06-18T08:02:48.309Z,16.52
2019-06-18T08:03:48.312Z,16.49
2019-06-18T08:04:48.343Z,16.48
2019-06-18T08:05:48.400Z,16.45
2019-06-18T08:06:48.443Z,16.48
2019-06-18T08:07:48.481Z,16.50
2019-06-18T08:08:48.525Z,16.52
2019-06-18T08:09:48.570Z,16.49
2019-06-18T08:10:48.620Z,16.42
2019-06-18T08:11:48.646Z,16.50
2019-06-18T08:12:48.845Z,16.49
2019-06-18T08:13:48.760Z,16.48
2019-06-18T08:14:48.788Z,16.56
2019-06-18T08:15:48.807Z,16.52
2019-06-18T08:16:48.853Z,16.50
2019-06-18T08:17:48.879Z,16.58
2019-06-18T08:18:48.929Z,16.60
2019-06-18T08:19:48.980Z,16.58
2019-06-18T08:20:49.005Z,16.52
2019-06-18T08:21:49.050Z,16.56
2019-06-18T08:22:49.102Z,16.60
2019-06-18T08:23:49.127Z,16.55
2019-06-18T08:24:49.164Z,16.49
2019-06-18T08:25:49.238Z,16.50
2019-06-18T08:26:49.321Z,16.56
2019-06-18T08:27:49.277Z,16.48
2019-06-18T08:28:49.346Z,16.44
2019-06-18T08:29:49.357Z,16.41
2019-06-18T08:30:49.427Z,16.41
2019-06-18T08:31:57.568Z,16.38
2019-06-18T08:32:49.489Z,16.38
2019-06-18T08:33:49.552Z,16.37
2019-06-18T08:34:49.609Z,16.37
2019-06-18T08:35:49.605Z,16.45
2019-06-18T08:36:49.667Z,16.48
2019-06-18T08:37:49.698Z,16.41
2019-06-18T08:38:49.740Z,16.40
2019-06-18T08:39:49.798Z,16.42
2019-06-18T08:40:49.824Z,16.41
2019-06-18T08:41:52.081Z,16.37
2019-06-18T08:42:49.951Z,16.33
2019-06-18T08:43:52.911Z,16.34
2019-06-18T08:44:49.972Z,16.38
2019-06-18T08:45:50.017Z,16.27
2019-06-18T08:46:52.448Z,16.27
2019-06-18T08:47:50.119Z,16.34
2019-06-18T08:48:52.875Z,16.30
2019-06-18T08:49:50.193Z,16.31
2019-06-18T08:50:51.480Z,16.25
2019-06-18T08:51:53.242Z,16.23
2019-06-18T08:52:53.026Z,16.25
2019-06-18T08:53:50.357Z,16.16
2019-06-18T08:54:53.102Z,16.11
2019-06-18T08:55:52.613Z,16.18
2019-06-18T08:56:52.729Z,16.20
2019-06-18T08:57:52.961Z,16.16
2019-06-18T08:58:52.425Z,16.20
2019-06-18T08:59:52.575Z,16.22
2019-06-18T09:00:53.010Z,16.07
2019-06-18T09:01:53.577Z,16.25
2019-06-18T09:02:52.332Z,16.18
2019-06-18T09:03:52.316Z,16.16
2019-06-18T09:04:53.093Z,16.11
2019-06-18T09:05:52.406Z,16.15
2019-06-18T09:06:53.253Z,16.12
2019-06-18T09:07:53.566Z,16.20
2019-06-18T09:08:53.531Z,16.12
2019-06-18T09:09:53.187Z,16.16
2019-06-18T09:10:53.428Z,16.16
2019-06-18T09:11:52.420Z,16.26
2019-06-18T09:12:53.114Z,16.23
2019-06-18T09:13:53.253Z,16.22
2019-06-18T09:14:52.400Z,16.25
2019-06-18T09:15:53.422Z,16.14
2019-06-18T09:16:52.696Z,16.25
2019-06-18T09:17:52.617Z,16.07
2019-06-18T09:18:53.742Z,16.16
2019-06-18T09:19:53.113Z,16.25
2019-06-18T09:21:01.428Z,16.11
2019-06-18T09:21:52.419Z,16.16
2019-06-18T09:22:52.998Z,16.18
2019-06-18T09:23:52.811Z,16.16
2019-06-18T09:24:53.253Z,16.18
2019-06-18T09:25:53.427Z,16.15
2019-06-18T09:26:53.273Z,16.15
2019-06-18T09:27:52.882Z,16.25
2019-06-18T09:28:53.454Z,16.16
2019-06-18T09:29:52.786Z,16.14
2019-06-18T09:30:52.989Z,16.16
2019-06-18T09:31:53.024Z,16.16
2019-06-18T09:32:53.357Z,16.15
2019-06-18T09:33:53.674Z,16.18
2019-06-18T09:34:53.492Z,16.16
2019-06-18T09:35:53.582Z,16.14
2019-06-18T09:36:53.267Z,16.12
2019-06-18T09:37:53.385Z,16.16
2019-06-18T09:38:53.524Z,16.15
2019-06-18T09:39:53.562Z,16.23
2019-06-18T09:40:53.248Z,16.20
2019-06-18T09:41:53.670Z,16.12
2019-06-18T09:42:53.484Z,16.07
2019-06-18T09:43:52.639Z,16.07
2019-06-18T09:44:53.560Z,16.00
2019-06-18T09:45:53.202Z,16.01
2019-06-18T09:46:53.654Z,16.07
2019-06-18T09:47:53.267Z,16.07
2019-06-18T09:48:53.109Z,16.14
2019-06-18T09:49:53.452Z,15.97
2019-06-18T09:50:53.203Z,16.07
2019-06-18T09:51:53.328Z,16.09
2019-06-18T09:52:53.683Z,16.04
2019-06-18T09:53:53.727Z,16.07
2019-06-18T09:54:53.116Z,16.09
2019-06-18T09:55:53.403Z,16.14
2019-06-18T09:56:53.040Z,16.15
2019-06-18T09:57:53.226Z,16.12
2019-06-18T09:58:53.901Z,16.18
2019-06-18T09:59:53.032Z,16.16
2019-06-18T10:00:53.347Z,16.31
2019-06-18T10:01:53.587Z,16.30
2019-06-18T10:02:54.202Z,16.33
2019-06-18T10:03:54.043Z,16.27
2019-06-18T10:04:53.461Z,16.25
2019-06-18T10:05:53.288Z,16.27
2019-06-18T10:06:53.319Z,16.33
2019-06-18T10:07:53.359Z,16.34
2019-06-18T10:08:53.417Z,16.33
2019-06-18T10:09:53.809Z,16.33
2019-06-18T10:10:53.492Z,16.30
2019-06-18T10:11:53.533Z,16.34
2019-06-18T10:12:53.564Z,16.42
2019-06-18T10:13:53.594Z,16.42
2019-06-18T10:14:53.678Z,16.40
2019-06-18T10:15:53.689Z,16.38
2019-06-18T10:16:53.725Z,16.45
2019-06-18T10:17:53.779Z,16.48
2019-06-18T10:18:53.844Z,16.49
2019-06-18T10:19:53.827Z,16.50
2019-06-18T10:20:53.960Z,16.55
2019-06-18T10:21:54.157Z,16.52
2019-06-18T10:22:54.020Z,16.52
2019-06-18T10:23:54.028Z,16.55
2019-06-18T10:24:54.085Z,16.60
2019-06-18T10:25:54.118Z,16.62
2019-06-18T10:26:54.148Z,16.68
2019-06-18T10:27:54.195Z,16.70
2019-06-18T10:29:17.201Z,16.73
2019-06-18T10:30:01.675Z,16.67
2019-06-18T10:30:54.314Z,16.80
2019-06-18T10:31:54.366Z,16.80
2019-06-18T10:32:54.396Z,16.70
2019-06-18T10:33:54.421Z,16.75
2019-06-18T10:34:54.463Z,16.78
2019-06-18T10:35:54.511Z,16.86
2019-06-18T10:36:54.548Z,16.89
2019-06-18T10:37:54.597Z,16.93
2019-06-18T10:38:54.638Z,16.92
2019-06-18T10:39:54.684Z,16.96
2019-06-18T10:40:54.730Z,16.86
2019-06-18T10:41:54.770Z,16.93
2019-06-18T10:42:54.843Z,16.89
2019-06-18T10:43:54.854Z,16.89
2019-06-18T10:44:54.883Z,16.89
2019-06-18T10:46:56.588Z,16.90
2019-06-18T10:47:55.001Z,16.96
2019-06-18T10:48:55.088Z,17.08
2019-06-18T10:49:55.094Z,17.14
2019-06-18T10:50:55.132Z,17.17
2019-06-18T10:52:00.351Z,17.17
2019-06-18T10:52:55.233Z,17.25
2019-06-18T10:53:55.259Z,17.20
2019-06-18T10:54:55.297Z,17.25
2019-06-18T10:55:55.338Z,17.22
2019-06-18T10:56:55.401Z,17.40
2019-06-18T10:57:55.437Z,17.44
2019-06-18T10:58:55.473Z,17.53
2019-06-18T10:59:55.506Z,17.89
2019-06-18T11:00:55.546Z,18.10
2019-06-18T11:01:55.574Z,18.39
2019-06-18T11:02:55.628Z,18.61
2019-06-18T11:03:55.679Z,18.77
2019-06-18T11:04:55.714Z,19.06
2019-06-18T11:05:55.797Z,19.25
2019-06-18T11:06:55.853Z,19.42
2019-06-18T11:08:02.945Z,19.80
2019-06-18T11:08:55.908Z,20.06
2019-06-18T11:09:55.936Z,20.09
2019-06-18T11:10:55.982Z,20.28
2019-06-18T11:11:56.032Z,20.46
2019-06-18T11:12:56.079Z,20.58
2019-06-18T11:14:07.745Z,20.80
2019-06-18T11:14:56.147Z,21.02
2019-06-18T11:15:56.210Z,21.08
2019-06-18T11:16:56.332Z,21.17
2019-06-18T11:17:56.329Z,21.24
2019-06-18T11:18:56.328Z,21.45
2019-06-18T11:19:56.398Z,21.72
2019-06-18T11:20:56.440Z,21.83
2019-06-18T11:22:09.480Z,21.66
2019-06-18T11:22:56.532Z,21.56
2019-06-18T11:23:56.547Z,21.54
2019-06-18T11:24:56.720Z,21.79
2019-06-18T11:25:56.688Z,21.97
2019-06-18T11:26:56.703Z,22.12
2019-06-18T11:27:56.741Z,22.23
2019-06-18T11:28:56.805Z,22.20
2019-06-18T11:29:56.833Z,22.41
2019-06-18T11:30:56.880Z,22.34
2019-06-18T11:31:56.959Z,22.34
2019-06-18T11:32:57.033Z,22.54
2019-06-18T11:33:57.030Z,22.60
2019-06-18T11:34:57.080Z,22.56
2019-06-18T11:35:57.123Z,22.22
2019-06-18T11:36:57.175Z,22.35
2019-06-18T11:37:57.245Z,22.47
2019-06-18T11:38:57.254Z,22.59
2019-06-18T11:39:57.321Z,22.84
2019-06-18T11:40:57.362Z,22.87
2019-06-18T11:41:57.408Z,22.92
2019-06-18T11:42:57.507Z,22.97
2019-06-18T11:43:57.484Z,22.96
2019-06-18T11:44:57.541Z,22.78
2019-06-18T11:45:57.600Z,22.54
2019-06-18T11:46:57.665Z,22.52
2019-06-18T11:47:57.741Z,22.37
2019-06-18T11:48:57.823Z,22.52
2019-06-18T11:49:57.840Z,22.46
2019-06-18T11:50:57.842Z,22.59
2019-06-18T11:52:57.959Z,23.12
2019-06-18T11:53:57.987Z,23.40
2019-06-18T11:54:58.045Z,23.71
2019-06-18T11:55:58.084Z,23.95
2019-06-18T11:56:58.137Z,23.89
2019-06-18T11:57:58.191Z,24.14
2019-06-18T11:58:58.232Z,24.12
2019-06-18T11:59:58.303Z,23.97
2019-06-18T12:00:58.333Z,23.82
2019-06-18T12:01:58.409Z,23.92
2019-06-18T12:02:58.438Z,24.04
2019-06-18T12:03:58.521Z,24.13
2019-06-18T12:04:58.534Z,24.23
2019-06-18T12:05:58.577Z,24.37
2019-06-18T12:06:58.640Z,24.44
2019-06-18T12:07:58.663Z,24.59
2019-06-18T12:08:58.727Z,24.47
2019-06-18T12:09:58.767Z,24.76
2019-06-18T12:11:02.323Z,24.91
2019-06-18T12:11:58.922Z,25.05
2019-06-18T12:12:58.948Z,25.17
2019-06-18T12:13:58.989Z,25.28
2019-06-18T12:14:59.021Z,25.47
2019-06-18T12:15:59.081Z,25.35
2019-06-18T12:16:59.127Z,25.16
2019-06-18T12:17:59.197Z,25.17
2019-06-18T12:18:59.277Z,25.20
2019-06-18T12:19:59.293Z,25.30
2019-06-18T12:20:59.343Z,25.32
2019-06-18T12:21:59.397Z,25.57
2019-06-18T12:22:59.414Z,25.10
2019-06-18T12:23:59.496Z,24.95
2019-06-18T12:25:02.423Z,24.76
2019-06-18T12:25:59.570Z,24.39
2019-06-18T12:26:59.664Z,24.19
2019-06-18T12:27:59.709Z,24.14
2019-06-18T12:28:59.722Z,24.01
2019-06-18T12:30:02.564Z,24.14
2019-06-18T12:30:59.838Z,24.08
2019-06-18T12:31:59.910Z,24.39
2019-06-18T12:33:02.732Z,24.79
2019-06-18T12:34:03.103Z,24.92
2019-06-18T12:35:02.786Z,25.17
2019-06-18T12:36:00.108Z,25.31
2019-06-18T12:37:02.795Z,25.22
2019-06-18T12:38:00.184Z,25.39
2019-06-18T12:39:03.123Z,24.94
2019-06-18T12:40:02.779Z,24.97
2019-06-18T12:41:03.187Z,25.13
2019-06-18T12:42:03.336Z,24.97
2019-06-18T12:43:02.901Z,24.73
2019-06-18T12:44:02.787Z,24.47
2019-06-18T12:45:03.721Z,24.79
2019-06-18T12:46:03.237Z,25.37
2019-06-18T12:47:00.655Z,25.52
2019-06-18T12:48:03.948Z,25.52
2019-06-18T12:49:03.123Z,25.34
2019-06-18T12:50:03.590Z,25.27
2019-06-18T12:51:03.278Z,25.10
2019-06-18T12:52:03.333Z,25.06
2019-06-18T12:53:07.045Z,24.82
2019-06-18T12:54:09.081Z,24.23
2019-06-18T12:55:04.321Z,24.17